Hauptseite
METAR-TAF:

METAR-TAF

Flughäfen :

Flughafen Peking

Peking, China

Breite: 39-56N, Länge: 116-17E, Höhe: 55 m

Beobachtung

Neuester Wetterbericht von vor 29 Minuten, um 15:00 UTC
Wind 8 kt aus West/Nordwest, variierte zwischen Süd/Südwest und Nord
Temperatur 27°C
Luftfeuchtigkeit 23%
Luftdruck 1003 hPa
Sichtweite 10 km oder mehr
keine Wolken unter 1500 m und keine Kumulonimbus oder Gewitterwolken

METAR: ZBAA 271500Z 30004MPS 200V360 CAVOK 27/04 Q1003 NOSIG

Zeit: 23:29 (15:29 UTC)

Prognose

Neuester Wetterbericht von vor 5 Stunden und 59 Minuten, um 09:30 UTC
Gültige Prognose vom 27 um 12 UTC bis 28 um 12 UTC
Wind 8 kt aus Nord
Sichtweite 10 km oder mehr
keine Wolken unter 1500 m und keine Kumulonimbus oder Gewitterwolken
Zeitweise
vom 28 um 02 UTC bis 28 um 08 UTC
Wind 17 kt aus Nord/Nordwest, Böen bis zu 29 kt

TAF: ZBAA 270930Z 2712/2812 36004MPS CAVOK TX30/2807Z TN16/2721Z TEMPO 2802/2808 33009G15MPS

Wetterbeobachtungen und Prognosen von mehr als 4000 Flughäfen (METAR und TAF Bericht).

Die verfügbaren Stationen werden durch gelbe und rote Markierungen auf der Karte dargestellt.

Führen Sie die Maus auf sie, um den Namen der Station zu sehen.

Darauf klicken, um die Beobachtung von Wetterbeobachtungen und Prognosen zu sehen.

Um die Karte zu ändern : klicken Sie auf den grünen Tasten mit einem schwarzen Kreuz Zum Vergrößern, auf den grünen Button mit einem Gedankenstrich zu verkleinern, oder auf die grünen Pfeile für benachbarte Karten.


METAR-TAF: